sensor_id;sensor_type;location;lat;lon;timestamp;P1;durP1;ratioP1;P2;durP2;ratioP2
10154;SDS011;5118;48.570;7.916;2022-12-29T00:01:09;2.17;;;1.80;;
10154;SDS011;5118;48.570;7.916;2022-12-29T00:03:39;2.93;;;2.03;;
10154;SDS011;5118;48.570;7.916;2022-12-29T00:06:08;4.47;;;2.00;;
10154;SDS011;5118;48.570;7.916;2022-12-29T00:08:36;2.40;;;2.20;;
10154;SDS011;5118;48.570;7.916;2022-12-29T00:11:07;1.97;;;1.70;;
10154;SDS011;5118;48.570;7.916;2022-12-29T00:13:37;2.53;;;2.00;;
10154;SDS011;5118;48.570;7.916;2022-12-29T00:16:22;3.60;;;2.10;;
10154;SDS011;5118;48.570;7.916;2022-12-29T00:18:52;3.20;;;1.90;;
10154;SDS011;5118;48.570;7.916;2022-12-29T00:21:22;3.10;;;1.90;;
10154;SDS011;5118;48.570;7.916;2022-12-29T00:24:09;2.40;;;1.87;;
10154;SDS011;5118;48.570;7.916;2022-12-29T00:26:58;7.33;;;2.20;;
10154;SDS011;5118;48.570;7.916;2022-12-29T00:29:55;2.40;;;1.90;;
10154;SDS011;5118;48.570;7.916;2022-12-29T00:32:42;4.47;;;2.20;;
10154;SDS011;5118;48.570;7.916;2022-12-29T00:35:38;2.53;;;2.00;;
10154;SDS011;5118;48.570;7.916;2022-12-29T00:38:10;6.43;;;2.10;;
10154;SDS011;5118;48.570;7.916;2022-12-29T00:40:57;2.47;;;1.90;;
10154;SDS011;5118;48.570;7.916;2022-12-29T00:43:43;2.70;;;2.00;;
10154;SDS011;5118;48.570;7.916;2022-12-29T00:46:29;2.53;;;1.80;;
10154;SDS011;5118;48.570;7.916;2022-12-29T00:48:59;4.30;;;2.10;;
10154;SDS011;5118;48.570;7.916;2022-12-29T00:51:47;3.57;;;2.10;;
10154;SDS011;5118;48.570;7.916;2022-12-29T00:54:15;3.57;;;1.80;;
10154;SDS011;5118;48.570;7.916;2022-12-29T00:56:45;2.03;;;1.80;;
10154;SDS011;5118;48.570;7.916;2022-12-29T00:59:16;2.23;;;2.00;;
10154;SDS011;5118;48.570;7.916;2022-12-29T01:01:45;5.07;;;2.17;;
10154;SDS011;5118;48.570;7.916;2022-12-29T01:04:14;2.40;;;1.70;;
10154;SDS011;5118;48.570;7.916;2022-12-29T01:06:43;2.63;;;1.90;;
10154;SDS011;5118;48.570;7.916;2022-12-29T01:09:16;2.43;;;2.00;;
10154;SDS011;5118;48.570;7.916;2022-12-29T01:12:08;2.23;;;1.80;;
10154;SDS011;5118;48.570;7.916;2022-12-29T01:14:37;2.47;;;1.70;;
10154;SDS011;5118;48.570;7.916;2022-12-29T01:17:06;2.77;;;2.00;;
10154;SDS011;5118;48.570;7.916;2022-12-29T01:19:34;2.93;;;1.80;;
10154;SDS011;5118;48.570;7.916;2022-12-29T01:22:02;2.23;;;1.90;;
10154;SDS011;5118;48.570;7.916;2022-12-29T01:24:32;3.50;;;1.80;;
10154;SDS011;5118;48.570;7.916;2022-12-29T01:27:00;2.27;;;1.70;;
10154;SDS011;5118;48.570;7.916;2022-12-29T01:29:29;2.90;;;1.87;;
10154;SDS011;5118;48.570;7.916;2022-12-29T01:31:57;2.83;;;1.90;;
10154;SDS011;5118;48.570;7.916;2022-12-29T01:34:26;2.40;;;1.90;;
10154;SDS011;5118;48.570;7.916;2022-12-29T01:36:54;2.97;;;1.80;;
10154;SDS011;5118;48.570;7.916;2022-12-29T01:39:23;3.80;;;2.10;;
10154;SDS011;5118;48.570;7.916;2022-12-29T01:41:53;2.80;;;2.10;;
10154;SDS011;5118;48.570;7.916;2022-12-29T01:47:18;3.00;;;1.97;;
10154;SDS011;5118;48.570;7.916;2022-12-29T01:49:51;2.80;;;2.00;;
10154;SDS011;5118;48.570;7.916;2022-12-29T01:52:21;2.53;;;1.80;;
10154;SDS011;5118;48.570;7.916;2022-12-29T01:54:52;2.73;;;1.77;;
10154;SDS011;5118;48.570;7.916;2022-12-29T01:57:25;1.60;;;1.50;;
10154;SDS011;5118;48.570;7.916;2022-12-29T01:59:57;1.83;;;1.73;;
10154;SDS011;5118;48.570;7.916;2022-12-29T02:02:38;2.73;;;1.80;;
10154;SDS011;5118;48.570;7.916;2022-12-29T02:05:10;2.80;;;1.77;;
10154;SDS011;5118;48.570;7.916;2022-12-29T02:07:44;4.57;;;1.80;;
10154;SDS011;5118;48.570;7.916;2022-12-29T02:10:14;3.30;;;1.90;;
10154;SDS011;5118;48.570;7.916;2022-12-29T02:12:45;3.03;;;1.67;;
10154;SDS011;5118;48.570;7.916;2022-12-29T02:15:14;2.63;;;1.90;;
10154;SDS011;5118;48.570;7.916;2022-12-29T02:17:57;3.33;;;1.80;;
10154;SDS011;5118;48.570;7.916;2022-12-29T02:20:47;3.70;;;1.90;;
10154;SDS011;5118;48.570;7.916;2022-12-29T02:23:56;1.90;;;1.70;;
10154;SDS011;5118;48.570;7.916;2022-12-29T02:27:07;2.13;;;1.70;;
10154;SDS011;5118;48.570;7.916;2022-12-29T02:29:57;1.80;;;1.70;;
10154;SDS011;5118;48.570;7.916;2022-12-29T02:32:41;3.43;;;1.90;;
10154;SDS011;5118;48.570;7.916;2022-12-29T02:35:18;2.13;;;1.60;;
10154;SDS011;5118;48.570;7.916;2022-12-29T02:37:56;2.30;;;1.90;;
10154;SDS011;5118;48.570;7.916;2022-12-29T02:40:35;2.53;;;1.63;;
10154;SDS011;5118;48.570;7.916;2022-12-29T02:43:12;3.13;;;1.73;;
10154;SDS011;5118;48.570;7.916;2022-12-29T02:45:47;3.40;;;1.83;;
10154;SDS011;5118;48.570;7.916;2022-12-29T02:48:24;1.80;;;1.70;;
10154;SDS011;5118;48.570;7.916;2022-12-29T02:50:57;2.93;;;2.20;;
10154;SDS011;5118;48.570;7.916;2022-12-29T02:53:29;3.23;;;1.90;;
10154;SDS011;5118;48.570;7.916;2022-12-29T02:56:18;2.37;;;1.97;;
10154;SDS011;5118;48.570;7.916;2022-12-29T02:58:46;2.10;;;1.63;;
10154;SDS011;5118;48.570;7.916;2022-12-29T03:01:29;3.37;;;1.90;;
10154;SDS011;5118;48.570;7.916;2022-12-29T03:04:31;2.97;;;1.80;;
10154;SDS011;5118;48.570;7.916;2022-12-29T03:07:08;1.80;;;1.70;;
10154;SDS011;5118;48.570;7.916;2022-12-29T03:09:47;2.47;;;1.97;;
10154;SDS011;5118;48.570;7.916;2022-12-29T03:12:27;2.80;;;1.90;;
10154;SDS011;5118;48.570;7.916;2022-12-29T03:15:18;2.93;;;1.90;;
10154;SDS011;5118;48.570;7.916;2022-12-29T03:18:13;2.60;;;1.67;;
10154;SDS011;5118;48.570;7.916;2022-12-29T03:20:52;2.00;;;1.70;;
10154;SDS011;5118;48.570;7.916;2022-12-29T03:23:23;2.00;;;1.80;;
10154;SDS011;5118;48.570;7.916;2022-12-29T03:25:55;2.10;;;1.90;;
10154;SDS011;5118;48.570;7.916;2022-12-29T03:28:28;3.63;;;1.80;;
10154;SDS011;5118;48.570;7.916;2022-12-29T03:31:01;2.20;;;2.00;;
10154;SDS011;5118;48.570;7.916;2022-12-29T03:33:32;2.60;;;1.87;;
10154;SDS011;5118;48.570;7.916;2022-12-29T03:36:07;3.93;;;1.90;;
10154;SDS011;5118;48.570;7.916;2022-12-29T03:38:43;3.60;;;2.00;;
10154;SDS011;5118;48.570;7.916;2022-12-29T03:41:15;3.73;;;2.00;;
10154;SDS011;5118;48.570;7.916;2022-12-29T03:43:46;2.50;;;2.00;;
10154;SDS011;5118;48.570;7.916;2022-12-29T03:46:14;2.90;;;1.97;;
10154;SDS011;5118;48.570;7.916;2022-12-29T03:48:43;4.23;;;2.00;;
10154;SDS011;5118;48.570;7.916;2022-12-29T03:51:13;2.60;;;2.10;;
10154;SDS011;5118;48.570;7.916;2022-12-29T03:53:44;3.17;;;2.10;;
10154;SDS011;5118;48.570;7.916;2022-12-29T03:56:12;2.73;;;2.20;;
10154;SDS011;5118;48.570;7.916;2022-12-29T03:58:41;3.47;;;2.00;;
10154;SDS011;5118;48.570;7.916;2022-12-29T04:01:13;3.03;;;2.00;;
10154;SDS011;5118;48.570;7.916;2022-12-29T04:03:43;2.33;;;2.10;;
10154;SDS011;5118;48.570;7.916;2022-12-29T04:06:13;3.03;;;1.90;;
10154;SDS011;5118;48.570;7.916;2022-12-29T04:08:48;3.20;;;2.10;;
10154;SDS011;5118;48.570;7.916;2022-12-29T04:11:17;1.90;;;1.80;;
10154;SDS011;5118;48.570;7.916;2022-12-29T04:13:45;2.20;;;2.00;;
10154;SDS011;5118;48.570;7.916;2022-12-29T04:16:17;2.97;;;2.03;;
10154;SDS011;5118;48.570;7.916;2022-12-29T04:18:46;2.57;;;2.07;;
10154;SDS011;5118;48.570;7.916;2022-12-29T04:21:16;2.67;;;2.33;;
10154;SDS011;5118;48.570;7.916;2022-12-29T04:23:44;4.73;;;2.17;;
10154;SDS011;5118;48.570;7.916;2022-12-29T04:26:14;2.70;;;2.00;;
10154;SDS011;5118;48.570;7.916;2022-12-29T04:28:58;5.00;;;2.30;;
10154;SDS011;5118;48.570;7.916;2022-12-29T04:31:39;4.10;;;2.37;;
10154;SDS011;5118;48.570;7.916;2022-12-29T04:34:07;2.80;;;2.33;;
10154;SDS011;5118;48.570;7.916;2022-12-29T04:36:38;3.23;;;2.20;;
10154;SDS011;5118;48.570;7.916;2022-12-29T04:39:07;4.30;;;2.33;;
10154;SDS011;5118;48.570;7.916;2022-12-29T04:41:37;3.43;;;2.27;;
10154;SDS011;5118;48.570;7.916;2022-12-29T04:44:09;2.97;;;2.50;;
10154;SDS011;5118;48.570;7.916;2022-12-29T04:46:57;3.47;;;2.60;;
10154;SDS011;5118;48.570;7.916;2022-12-29T04:49:41;4.10;;;2.50;;
10154;SDS011;5118;48.570;7.916;2022-12-29T04:52:34;2.70;;;2.50;;
10154;SDS011;5118;48.570;7.916;2022-12-29T04:55:03;3.07;;;2.37;;
10154;SDS011;5118;48.570;7.916;2022-12-29T04:57:33;3.33;;;2.50;;
10154;SDS011;5118;48.570;7.916;2022-12-29T05:00:01;3.67;;;2.57;;
10154;SDS011;5118;48.570;7.916;2022-12-29T05:02:30;3.50;;;2.50;;
10154;SDS011;5118;48.570;7.916;2022-12-29T05:04:59;4.03;;;2.70;;
10154;SDS011;5118;48.570;7.916;2022-12-29T05:07:28;3.57;;;2.50;;
10154;SDS011;5118;48.570;7.916;2022-12-29T05:09:59;4.47;;;2.50;;
10154;SDS011;5118;48.570;7.916;2022-12-29T05:12:29;2.73;;;2.40;;
10154;SDS011;5118;48.570;7.916;2022-12-29T05:14:59;5.70;;;2.60;;
10154;SDS011;5118;48.570;7.916;2022-12-29T05:17:29;4.83;;;2.60;;
10154;SDS011;5118;48.570;7.916;2022-12-29T05:19:58;2.90;;;2.30;;
10154;SDS011;5118;48.570;7.916;2022-12-29T05:22:27;3.30;;;2.57;;
10154;SDS011;5118;48.570;7.916;2022-12-29T05:24:56;3.60;;;2.17;;
10154;SDS011;5118;48.570;7.916;2022-12-29T05:27:26;5.03;;;2.80;;
10154;SDS011;5118;48.570;7.916;2022-12-29T05:30:05;3.07;;;2.43;;
10154;SDS011;5118;48.570;7.916;2022-12-29T05:32:34;3.27;;;2.43;;
10154;SDS011;5118;48.570;7.916;2022-12-29T05:35:02;3.60;;;2.53;;
10154;SDS011;5118;48.570;7.916;2022-12-29T05:37:32;3.63;;;2.50;;
10154;SDS011;5118;48.570;7.916;2022-12-29T05:40:01;3.57;;;2.27;;
10154;SDS011;5118;48.570;7.916;2022-12-29T05:42:32;2.80;;;2.50;;
10154;SDS011;5118;48.570;7.916;2022-12-29T05:45:32;4.13;;;2.40;;
10154;SDS011;5118;48.570;7.916;2022-12-29T05:48:23;4.90;;;2.80;;
10154;SDS011;5118;48.570;7.916;2022-12-29T05:51:10;3.50;;;2.60;;
10154;SDS011;5118;48.570;7.916;2022-12-29T05:53:49;7.80;;;2.50;;
10154;SDS011;5118;48.570;7.916;2022-12-29T05:56:18;3.33;;;2.40;;
10154;SDS011;5118;48.570;7.916;2022-12-29T05:58:54;6.27;;;4.80;;
10154;SDS011;5118;48.570;7.916;2022-12-29T06:01:23;4.40;;;4.00;;
10154;SDS011;5118;48.570;7.916;2022-12-29T06:03:53;4.37;;;3.17;;
10154;SDS011;5118;48.570;7.916;2022-12-29T06:06:21;2.97;;;2.73;;
10154;SDS011;5118;48.570;7.916;2022-12-29T06:08:50;6.80;;;2.83;;
10154;SDS011;5118;48.570;7.916;2022-12-29T06:11:18;6.20;;;2.73;;
10154;SDS011;5118;48.570;7.916;2022-12-29T06:13:51;3.33;;;2.70;;
10154;SDS011;5118;48.570;7.916;2022-12-29T06:16:21;3.43;;;2.73;;
10154;SDS011;5118;48.570;7.916;2022-12-29T06:18:53;3.37;;;2.40;;
10154;SDS011;5118;48.570;7.916;2022-12-29T06:21:21;3.73;;;2.80;;
10154;SDS011;5118;48.570;7.916;2022-12-29T06:23:50;3.03;;;2.60;;
10154;SDS011;5118;48.570;7.916;2022-12-29T06:26:19;4.07;;;2.57;;
10154;SDS011;5118;48.570;7.916;2022-12-29T06:28:48;4.23;;;2.87;;
10154;SDS011;5118;48.570;7.916;2022-12-29T06:31:16;4.73;;;3.10;;
10154;SDS011;5118;48.570;7.916;2022-12-29T06:33:46;5.23;;;2.50;;
10154;SDS011;5118;48.570;7.916;2022-12-29T06:36:16;2.70;;;2.50;;
10154;SDS011;5118;48.570;7.916;2022-12-29T06:38:45;5.30;;;2.57;;
10154;SDS011;5118;48.570;7.916;2022-12-29T06:41:13;2.73;;;2.40;;
10154;SDS011;5118;48.570;7.916;2022-12-29T06:44:03;3.53;;;2.57;;
10154;SDS011;5118;48.570;7.916;2022-12-29T06:46:48;2.70;;;2.50;;
10154;SDS011;5118;48.570;7.916;2022-12-29T06:49:21;3.63;;;2.70;;
10154;SDS011;5118;48.570;7.916;2022-12-29T06:54:42;4.33;;;2.67;;
10154;SDS011;5118;48.570;7.916;2022-12-29T06:57:14;3.37;;;2.50;;
10154;SDS011;5118;48.570;7.916;2022-12-29T06:59:44;3.80;;;2.60;;
10154;SDS011;5118;48.570;7.916;2022-12-29T07:02:13;4.13;;;2.30;;
10154;SDS011;5118;48.570;7.916;2022-12-29T07:04:46;3.23;;;2.43;;
10154;SDS011;5118;48.570;7.916;2022-12-29T07:07:14;4.57;;;2.90;;
10154;SDS011;5118;48.570;7.916;2022-12-29T07:09:45;4.03;;;2.33;;
10154;SDS011;5118;48.570;7.916;2022-12-29T07:12:15;3.63;;;2.40;;
10154;SDS011;5118;48.570;7.916;2022-12-29T07:14:43;3.63;;;2.40;;
10154;SDS011;5118;48.570;7.916;2022-12-29T07:17:12;3.80;;;2.80;;
10154;SDS011;5118;48.570;7.916;2022-12-29T07:19:40;3.13;;;2.47;;
10154;SDS011;5118;48.570;7.916;2022-12-29T07:22:10;2.70;;;2.13;;
10154;SDS011;5118;48.570;7.916;2022-12-29T07:24:39;4.40;;;2.53;;
10154;SDS011;5118;48.570;7.916;2022-12-29T07:27:09;3.00;;;2.27;;
10154;SDS011;5118;48.570;7.916;2022-12-29T07:29:38;4.30;;;2.53;;
10154;SDS011;5118;48.570;7.916;2022-12-29T07:32:06;4.17;;;3.60;;
10154;SDS011;5118;48.570;7.916;2022-12-29T07:34:36;3.23;;;2.40;;
10154;SDS011;5118;48.570;7.916;2022-12-29T07:37:06;4.27;;;2.40;;
10154;SDS011;5118;48.570;7.916;2022-12-29T07:39:35;3.10;;;2.47;;
10154;SDS011;5118;48.570;7.916;2022-12-29T07:42:04;3.43;;;2.40;;
10154;SDS011;5118;48.570;7.916;2022-12-29T07:44:43;3.80;;;2.20;;
10154;SDS011;5118;48.570;7.916;2022-12-29T07:47:30;3.00;;;2.10;;
10154;SDS011;5118;48.570;7.916;2022-12-29T07:49:58;2.97;;;2.20;;
10154;SDS011;5118;48.570;7.916;2022-12-29T07:52:26;3.70;;;2.60;;
10154;SDS011;5118;48.570;7.916;2022-12-29T07:54:56;2.97;;;2.30;;
10154;SDS011;5118;48.570;7.916;2022-12-29T07:57:24;4.00;;;2.53;;
10154;SDS011;5118;48.570;7.916;2022-12-29T07:59:58;2.97;;;2.23;;
10154;SDS011;5118;48.570;7.916;2022-12-29T08:02:26;2.97;;;2.50;;
10154;SDS011;5118;48.570;7.916;2022-12-29T08:04:55;3.80;;;2.10;;
10154;SDS011;5118;48.570;7.916;2022-12-29T08:07:23;3.63;;;2.30;;
10154;SDS011;5118;48.570;7.916;2022-12-29T08:09:52;4.20;;;2.60;;
10154;SDS011;5118;48.570;7.916;2022-12-29T08:12:21;4.77;;;2.40;;
10154;SDS011;5118;48.570;7.916;2022-12-29T08:14:50;3.07;;;2.13;;
10154;SDS011;5118;48.570;7.916;2022-12-29T08:17:18;3.00;;;2.20;;
10154;SDS011;5118;48.570;7.916;2022-12-29T08:19:46;3.03;;;2.37;;
10154;SDS011;5118;48.570;7.916;2022-12-29T08:22:14;2.97;;;2.37;;
10154;SDS011;5118;48.570;7.916;2022-12-29T08:24:43;2.63;;;2.43;;
10154;SDS011;5118;48.570;7.916;2022-12-29T08:27:11;3.20;;;2.33;;
10154;SDS011;5118;48.570;7.916;2022-12-29T08:29:48;4.07;;;2.30;;
10154;SDS011;5118;48.570;7.916;2022-12-29T08:32:16;3.53;;;2.47;;
10154;SDS011;5118;48.570;7.916;2022-12-29T08:34:44;3.30;;;2.60;;
10154;SDS011;5118;48.570;7.916;2022-12-29T08:37:13;3.70;;;2.20;;
10154;SDS011;5118;48.570;7.916;2022-12-29T08:39:41;4.87;;;2.60;;
10154;SDS011;5118;48.570;7.916;2022-12-29T08:42:09;3.23;;;2.50;;
10154;SDS011;5118;48.570;7.916;2022-12-29T08:44:38;2.83;;;2.30;;
10154;SDS011;5118;48.570;7.916;2022-12-29T08:47:08;3.50;;;2.77;;
10154;SDS011;5118;48.570;7.916;2022-12-29T08:49:37;3.20;;;2.63;;
10154;SDS011;5118;48.570;7.916;2022-12-29T08:52:05;3.77;;;2.27;;
10154;SDS011;5118;48.570;7.916;2022-12-29T08:54:34;3.23;;;2.40;;
10154;SDS011;5118;48.570;7.916;2022-12-29T08:57:03;4.27;;;2.30;;
10154;SDS011;5118;48.570;7.916;2022-12-29T08:59:37;3.30;;;2.53;;
10154;SDS011;5118;48.570;7.916;2022-12-29T09:02:05;5.40;;;2.60;;
10154;SDS011;5118;48.570;7.916;2022-12-29T09:04:38;5.67;;;2.50;;
10154;SDS011;5118;48.570;7.916;2022-12-29T09:07:07;2.97;;;2.50;;
10154;SDS011;5118;48.570;7.916;2022-12-29T09:09:35;3.03;;;2.30;;
10154;SDS011;5118;48.570;7.916;2022-12-29T09:12:03;4.43;;;2.50;;
10154;SDS011;5118;48.570;7.916;2022-12-29T09:14:32;5.00;;;2.60;;
10154;SDS011;5118;48.570;7.916;2022-12-29T09:17:00;3.53;;;2.80;;
10154;SDS011;5118;48.570;7.916;2022-12-29T09:19:48;4.07;;;2.33;;
10154;SDS011;5118;48.570;7.916;2022-12-29T09:22:17;3.60;;;2.40;;
10154;SDS011;5118;48.570;7.916;2022-12-29T09:24:45;3.77;;;2.47;;
10154;SDS011;5118;48.570;7.916;2022-12-29T09:27:13;4.40;;;2.47;;
10154;SDS011;5118;48.570;7.916;2022-12-29T09:29:42;3.70;;;2.60;;
10154;SDS011;5118;48.570;7.916;2022-12-29T09:32:11;4.60;;;2.90;;
10154;SDS011;5118;48.570;7.916;2022-12-29T09:34:45;3.70;;;2.50;;
10154;SDS011;5118;48.570;7.916;2022-12-29T09:37:14;4.50;;;2.60;;
10154;SDS011;5118;48.570;7.916;2022-12-29T09:39:42;5.23;;;3.30;;
10154;SDS011;5118;48.570;7.916;2022-12-29T09:42:21;3.57;;;2.90;;
10154;SDS011;5118;48.570;7.916;2022-12-29T09:44:56;3.03;;;2.60;;
10154;SDS011;5118;48.570;7.916;2022-12-29T09:47:33;7.87;;;3.30;;
10154;SDS011;5118;48.570;7.916;2022-12-29T09:50:03;4.17;;;2.90;;
10154;SDS011;5118;48.570;7.916;2022-12-29T09:52:40;4.17;;;3.20;;
10154;SDS011;5118;48.570;7.916;2022-12-29T09:55:15;3.63;;;3.10;;
10154;SDS011;5118;48.570;7.916;2022-12-29T09:57:47;5.23;;;3.47;;
10154;SDS011;5118;48.570;7.916;2022-12-29T10:00:20;5.00;;;2.90;;
10154;SDS011;5118;48.570;7.916;2022-12-29T10:02:51;4.63;;;3.50;;
10154;SDS011;5118;48.570;7.916;2022-12-29T10:05:29;5.13;;;4.00;;
10154;SDS011;5118;48.570;7.916;2022-12-29T10:08:07;5.13;;;4.03;;
10154;SDS011;5118;48.570;7.916;2022-12-29T10:10:46;5.33;;;3.70;;
10154;SDS011;5118;48.570;7.916;2022-12-29T10:13:26;6.63;;;4.60;;
10154;SDS011;5118;48.570;7.916;2022-12-29T10:16:02;4.43;;;3.23;;
10154;SDS011;5118;48.570;7.916;2022-12-29T10:18:44;3.97;;;2.30;;
10154;SDS011;5118;48.570;7.916;2022-12-29T10:21:26;4.50;;;2.57;;
10154;SDS011;5118;48.570;7.916;2022-12-29T10:24:04;5.37;;;2.57;;
10154;SDS011;5118;48.570;7.916;2022-12-29T10:26:39;4.63;;;2.73;;
10154;SDS011;5118;48.570;7.916;2022-12-29T10:29:12;3.50;;;2.50;;
10154;SDS011;5118;48.570;7.916;2022-12-29T10:31:44;5.47;;;3.17;;
10154;SDS011;5118;48.570;7.916;2022-12-29T10:34:19;4.10;;;3.10;;
10154;SDS011;5118;48.570;7.916;2022-12-29T10:36:51;3.50;;;3.00;;
10154;SDS011;5118;48.570;7.916;2022-12-29T10:39:28;3.47;;;2.30;;
10154;SDS011;5118;48.570;7.916;2022-12-29T10:42:03;2.07;;;1.70;;
10154;SDS011;5118;48.570;7.916;2022-12-29T10:44:38;2.37;;;1.80;;
10154;SDS011;5118;48.570;7.916;2022-12-29T10:47:07;2.67;;;1.50;;
10154;SDS011;5118;48.570;7.916;2022-12-29T10:49:42;3.00;;;2.13;;
10154;SDS011;5118;48.570;7.916;2022-12-29T10:52:15;5.33;;;3.17;;
10154;SDS011;5118;48.570;7.916;2022-12-29T10:54:49;5.53;;;3.47;;
10154;SDS011;5118;48.570;7.916;2022-12-29T10:57:24;3.10;;;2.80;;
10154;SDS011;5118;48.570;7.916;2022-12-29T10:59:56;2.30;;;2.10;;
10154;SDS011;5118;48.570;7.916;2022-12-29T11:02:31;3.07;;;2.77;;
10154;SDS011;5118;48.570;7.916;2022-12-29T11:05:25;2.60;;;2.33;;
10154;SDS011;5118;48.570;7.916;2022-12-29T11:08:01;3.23;;;2.20;;
10154;SDS011;5118;48.570;7.916;2022-12-29T11:10:36;4.87;;;3.70;;
10154;SDS011;5118;48.570;7.916;2022-12-29T11:13:11;2.43;;;2.03;;
10154;SDS011;5118;48.570;7.916;2022-12-29T11:15:41;2.10;;;1.50;;
10154;SDS011;5118;48.570;7.916;2022-12-29T11:18:18;2.80;;;2.50;;
10154;SDS011;5118;48.570;7.916;2022-12-29T11:20:49;2.40;;;2.20;;
10154;SDS011;5118;48.570;7.916;2022-12-29T11:26:12;2.13;;;1.93;;
10154;SDS011;5118;48.570;7.916;2022-12-29T11:28:43;4.43;;;2.20;;
10154;SDS011;5118;48.570;7.916;2022-12-29T11:31:17;2.33;;;2.13;;
10154;SDS011;5118;48.570;7.916;2022-12-29T11:33:46;5.47;;;3.63;;
10154;SDS011;5118;48.570;7.916;2022-12-29T11:36:16;4.73;;;3.50;;
10154;SDS011;5118;48.570;7.916;2022-12-29T11:38:47;4.13;;;3.10;;
10154;SDS011;5118;48.570;7.916;2022-12-29T11:41:22;3.80;;;2.93;;
10154;SDS011;5118;48.570;7.916;2022-12-29T11:43:52;3.03;;;2.67;;
10154;SDS011;5118;48.570;7.916;2022-12-29T11:46:24;2.67;;;2.47;;
10154;SDS011;5118;48.570;7.916;2022-12-29T11:48:55;2.50;;;2.30;;
10154;SDS011;5118;48.570;7.916;2022-12-29T11:51:27;3.63;;;2.90;;
10154;SDS011;5118;48.570;7.916;2022-12-29T11:53:58;3.47;;;3.00;;
10154;SDS011;5118;48.570;7.916;2022-12-29T11:56:37;3.77;;;3.33;;
10154;SDS011;5118;48.570;7.916;2022-12-29T12:05:14;5.57;;;3.27;;
10154;SDS011;5118;48.570;7.916;2022-12-29T12:07:49;4.40;;;2.60;;
10154;SDS011;5118;48.570;7.916;2022-12-29T12:10:23;3.63;;;2.77;;
10154;SDS011;5118;48.570;7.916;2022-12-29T12:12:58;3.83;;;2.73;;
10154;SDS011;5118;48.570;7.916;2022-12-29T12:15:36;3.30;;;2.73;;
10154;SDS011;5118;48.570;7.916;2022-12-29T12:18:15;4.17;;;2.50;;
10154;SDS011;5118;48.570;7.916;2022-12-29T12:20:48;5.40;;;3.40;;
10154;SDS011;5118;48.570;7.916;2022-12-29T12:23:32;4.27;;;3.37;;
10154;SDS011;5118;48.570;7.916;2022-12-29T12:26:11;3.13;;;2.80;;
10154;SDS011;5118;48.570;7.916;2022-12-29T12:28:45;4.77;;;2.80;;
10154;SDS011;5118;48.570;7.916;2022-12-29T12:31:18;2.87;;;2.30;;
10154;SDS011;5118;48.570;7.916;2022-12-29T12:33:59;4.77;;;2.90;;
10154;SDS011;5118;48.570;7.916;2022-12-29T12:36:52;3.60;;;2.40;;
10154;SDS011;5118;48.570;7.916;2022-12-29T12:39:37;3.60;;;2.40;;
10154;SDS011;5118;48.570;7.916;2022-12-29T12:42:18;4.00;;;2.20;;
10154;SDS011;5118;48.570;7.916;2022-12-29T12:45:16;3.30;;;2.20;;
10154;SDS011;5118;48.570;7.916;2022-12-29T12:47:58;4.23;;;2.70;;
10154;SDS011;5118;48.570;7.916;2022-12-29T12:50:42;3.30;;;2.47;;
10154;SDS011;5118;48.570;7.916;2022-12-29T12:53:24;2.73;;;2.47;;
10154;SDS011;5118;48.570;7.916;2022-12-29T12:56:04;3.77;;;2.60;;
10154;SDS011;5118;48.570;7.916;2022-12-29T12:58:46;4.10;;;2.63;;
10154;SDS011;5118;48.570;7.916;2022-12-29T13:01:24;5.97;;;3.13;;
10154;SDS011;5118;48.570;7.916;2022-12-29T13:04:06;4.03;;;3.20;;
10154;SDS011;5118;48.570;7.916;2022-12-29T13:06:51;3.57;;;2.70;;
10154;SDS011;5118;48.570;7.916;2022-12-29T13:09:33;3.57;;;2.70;;
10154;SDS011;5118;48.570;7.916;2022-12-29T13:12:14;4.23;;;2.83;;
10154;SDS011;5118;48.570;7.916;2022-12-29T13:14:56;4.97;;;2.80;;
10154;SDS011;5118;48.570;7.916;2022-12-29T13:17:35;4.97;;;2.60;;
10154;SDS011;5118;48.570;7.916;2022-12-29T13:20:11;2.93;;;2.47;;
10154;SDS011;5118;48.570;7.916;2022-12-29T13:22:52;4.00;;;2.83;;
10154;SDS011;5118;48.570;7.916;2022-12-29T13:25:27;3.85;;;2.53;;
10154;SDS011;5118;48.570;7.916;2022-12-29T13:28:03;3.30;;;2.50;;
10154;SDS011;5118;48.570;7.916;2022-12-29T13:30:38;2.63;;;2.37;;
10154;SDS011;5118;48.570;7.916;2022-12-29T13:33:13;4.23;;;2.83;;
10154;SDS011;5118;48.570;7.916;2022-12-29T13:35:53;3.97;;;2.80;;
10154;SDS011;5118;48.570;7.916;2022-12-29T13:38:26;4.18;;;2.58;;
10154;SDS011;5118;48.570;7.916;2022-12-29T13:41:02;3.00;;;2.67;;
10154;SDS011;5118;48.570;7.916;2022-12-29T13:43:34;2.67;;;2.38;;
10154;SDS011;5118;48.570;7.916;2022-12-29T13:46:09;3.25;;;2.35;;
10154;SDS011;5118;48.570;7.916;2022-12-29T13:48:43;2.63;;;2.37;;
10154;SDS011;5118;48.570;7.916;2022-12-29T13:51:16;3.42;;;2.28;;
10154;SDS011;5118;48.570;7.916;2022-12-29T13:54:02;4.37;;;2.20;;
10154;SDS011;5118;48.570;7.916;2022-12-29T13:56:40;3.63;;;2.20;;
10154;SDS011;5118;48.570;7.916;2022-12-29T13:59:16;4.40;;;2.10;;
10154;SDS011;5118;48.570;7.916;2022-12-29T14:01:50;3.77;;;2.30;;
10154;SDS011;5118;48.570;7.916;2022-12-29T14:04:26;3.23;;;2.70;;
10154;SDS011;5118;48.570;7.916;2022-12-29T14:06:59;4.37;;;2.60;;
10154;SDS011;5118;48.570;7.916;2022-12-29T14:09:37;4.23;;;3.60;;
10154;SDS011;5118;48.570;7.916;2022-12-29T14:12:19;6.03;;;4.70;;
10154;SDS011;5118;48.570;7.916;2022-12-29T14:14:52;4.40;;;3.70;;
10154;SDS011;5118;48.570;7.916;2022-12-29T14:17:21;4.40;;;3.00;;
10154;SDS011;5118;48.570;7.916;2022-12-29T14:19:52;3.47;;;3.10;;
10154;SDS011;5118;48.570;7.916;2022-12-29T14:22:22;4.80;;;2.80;;
10154;SDS011;5118;48.570;7.916;2022-12-29T14:24:58;3.20;;;2.83;;
10154;SDS011;5118;48.570;7.916;2022-12-29T14:27:43;3.63;;;3.07;;
10154;SDS011;5118;48.570;7.916;2022-12-29T14:33:15;10.03;;;3.23;;
10154;SDS011;5118;48.570;7.916;2022-12-29T14:35:47;4.47;;;2.33;;
10154;SDS011;5118;48.570;7.916;2022-12-29T14:38:22;15.80;;;3.27;;
10154;SDS011;5118;48.570;7.916;2022-12-29T14:44:11;3.93;;;2.60;;
10154;SDS011;5118;48.570;7.916;2022-12-29T14:46:54;2.57;;;2.30;;
10154;SDS011;5118;48.570;7.916;2022-12-29T14:49:25;9.47;;;2.80;;
10154;SDS011;5118;48.570;7.916;2022-12-29T14:52:05;4.37;;;2.70;;
10154;SDS011;5118;48.570;7.916;2022-12-29T14:54:42;4.20;;;2.93;;
10154;SDS011;5118;48.570;7.916;2022-12-29T14:57:21;5.30;;;3.00;;
10154;SDS011;5118;48.570;7.916;2022-12-29T14:59:58;8.53;;;3.80;;
10154;SDS011;5118;48.570;7.916;2022-12-29T15:02:35;4.90;;;3.00;;
10154;SDS011;5118;48.570;7.916;2022-12-29T15:05:20;2.67;;;2.10;;
10154;SDS011;5118;48.570;7.916;2022-12-29T15:07:56;2.97;;;1.90;;
10154;SDS011;5118;48.570;7.916;2022-12-29T15:10:25;2.90;;;1.80;;
10154;SDS011;5118;48.570;7.916;2022-12-29T15:13:02;6.63;;;2.37;;
10154;SDS011;5118;48.570;7.916;2022-12-29T15:15:35;1.67;;;1.37;;
10154;SDS011;5118;48.570;7.916;2022-12-29T15:18:13;4.73;;;1.70;;
10154;SDS011;5118;48.570;7.916;2022-12-29T15:20:50;2.27;;;1.70;;
10154;SDS011;5118;48.570;7.916;2022-12-29T15:23:22;2.33;;;2.00;;
10154;SDS011;5118;48.570;7.916;2022-12-29T15:25:53;4.53;;;2.20;;
10154;SDS011;5118;48.570;7.916;2022-12-29T15:28:23;3.83;;;2.30;;
10154;SDS011;5118;48.570;7.916;2022-12-29T15:30:52;3.77;;;2.20;;
10154;SDS011;5118;48.570;7.916;2022-12-29T15:33:23;5.83;;;3.30;;
10154;SDS011;5118;48.570;7.916;2022-12-29T15:35:54;3.47;;;2.40;;
10154;SDS011;5118;48.570;7.916;2022-12-29T15:38:27;13.63;;;2.90;;
10154;SDS011;5118;48.570;7.916;2022-12-29T15:41:06;3.57;;;3.10;;
10154;SDS011;5118;48.570;7.916;2022-12-29T15:43:51;5.90;;;3.87;;
10154;SDS011;5118;48.570;7.916;2022-12-29T15:46:25;6.70;;;4.77;;
10154;SDS011;5118;48.570;7.916;2022-12-29T15:48:57;6.30;;;4.03;;
10154;SDS011;5118;48.570;7.916;2022-12-29T15:51:29;5.20;;;4.00;;
10154;SDS011;5118;48.570;7.916;2022-12-29T15:54:02;3.50;;;2.73;;
10154;SDS011;5118;48.570;7.916;2022-12-29T15:56:31;4.27;;;2.70;;
10154;SDS011;5118;48.570;7.916;2022-12-29T15:59:00;5.80;;;3.10;;
10154;SDS011;5118;48.570;7.916;2022-12-29T16:01:29;6.83;;;4.23;;
10154;SDS011;5118;48.570;7.916;2022-12-29T16:04:00;6.67;;;4.43;;